createdAt,value
2019-02-28T00:00:44.228Z,10.90
2019-02-28T00:03:12.923Z,10.90
2019-02-28T00:05:41.614Z,10.80
2019-02-28T00:08:10.262Z,10.90
2019-02-28T00:10:38.900Z,10.90
2019-02-28T00:13:07.594Z,10.80
2019-02-28T00:15:36.251Z,10.80
2019-02-28T00:18:04.917Z,10.80
2019-02-28T00:20:33.561Z,10.80
2019-02-28T00:23:02.196Z,10.80
2019-02-28T00:25:30.854Z,10.80
2019-02-28T00:27:59.567Z,10.70
2019-02-28T00:30:28.124Z,10.80
2019-02-28T00:32:59.396Z,10.80
2019-02-28T00:35:27.126Z,10.70
2019-02-28T00:37:56.696Z,10.70
2019-02-28T00:40:26.229Z,10.80
2019-02-28T00:42:54.937Z,10.70
2019-02-28T00:45:23.516Z,10.80
2019-02-28T00:47:52.108Z,10.70
2019-02-28T00:50:20.970Z,10.50
2019-02-28T00:52:49.622Z,10.40
2019-02-28T00:55:18.202Z,10.30
2019-02-28T00:57:46.900Z,10.30
2019-02-28T01:00:20.600Z,10.20
2019-02-28T01:02:53.490Z,10.30
2019-02-28T01:05:19.600Z,10.20
2019-02-28T01:07:49.065Z,10.10
2019-02-28T01:10:17.839Z,10.10
2019-02-28T01:12:46.521Z,10.10
2019-02-28T01:15:18.647Z,10.20
2019-02-28T01:17:46.533Z,10.10
2019-02-28T01:20:16.435Z,9.90
2019-02-28T01:22:45.577Z,9.90
2019-02-28T01:25:16.797Z,9.70
2019-02-28T01:27:45.445Z,9.70
2019-02-28T01:30:15.290Z,9.90
2019-02-28T01:32:43.728Z,9.90
2019-02-28T01:35:12.358Z,9.90
2019-02-28T01:37:40.861Z,10.00
2019-02-28T01:40:11.964Z,10.10
2019-02-28T01:42:40.538Z,10.20
2019-02-28T01:45:11.110Z,10.10
2019-02-28T01:47:39.765Z,10.10
2019-02-28T01:50:10.372Z,10.20
2019-02-28T01:52:44.364Z,10.10
2019-02-28T01:55:10.710Z,10.00
2019-02-28T01:57:42.322Z,9.90
2019-02-28T02:00:15.199Z,9.80
2019-02-28T02:02:43.748Z,9.80
2019-02-28T02:05:12.306Z,9.80
2019-02-28T02:07:40.882Z,9.80
2019-02-28T02:10:14.014Z,9.60
2019-02-28T02:12:42.591Z,9.70
2019-02-28T02:15:11.934Z,9.60
2019-02-28T02:17:40.629Z,9.60
2019-02-28T02:20:11.269Z,9.60
2019-02-28T02:22:40.612Z,9.50
2019-02-28T02:25:10.514Z,9.50
2019-02-28T02:27:39.172Z,9.40
2019-02-28T02:30:16.847Z,9.30
2019-02-28T02:32:45.514Z,9.30
2019-02-28T02:35:14.143Z,9.20
2019-02-28T02:37:42.779Z,9.30
2019-02-28T02:40:13.543Z,9.40
2019-02-28T02:42:47.625Z,9.50
2019-02-28T02:45:14.315Z,9.70
2019-02-28T02:47:42.981Z,9.70
2019-02-28T02:50:15.251Z,9.70
2019-02-28T02:52:43.936Z,9.60
2019-02-28T02:55:13.334Z,9.50
2019-02-28T02:57:42.041Z,9.40
2019-02-28T03:00:16.813Z,9.60
2019-02-28T03:02:45.523Z,9.60
2019-02-28T03:05:15.774Z,9.60
2019-02-28T03:07:44.443Z,9.80
2019-02-28T03:10:17.300Z,9.90
2019-02-28T03:12:45.509Z,9.80
2019-02-28T03:15:16.010Z,9.90
2019-02-28T03:17:47.323Z,9.90
2019-02-28T03:20:15.046Z,10.00
2019-02-28T03:22:43.722Z,9.90
2019-02-28T03:25:14.736Z,9.90
2019-02-28T03:27:43.378Z,9.90
2019-02-28T03:30:28.371Z,9.90
2019-02-28T03:32:48.133Z,9.90
2019-02-28T03:35:16.799Z,9.90
2019-02-28T03:37:45.507Z,9.80
2019-02-28T03:40:14.781Z,9.70
2019-02-28T03:42:43.400Z,9.60
2019-02-28T03:45:14.386Z,9.70
2019-02-28T03:47:42.959Z,9.70
2019-02-28T03:50:12.612Z,9.70
2019-02-28T03:52:43.775Z,9.60
2019-02-28T03:55:14.063Z,9.60
2019-02-28T03:57:42.639Z,9.70
2019-02-28T04:00:28.915Z,9.60
2019-02-28T04:02:58.662Z,9.60
2019-02-28T04:05:28.108Z,9.60
2019-02-28T04:07:55.442Z,9.50
2019-02-28T04:10:24.071Z,9.50
2019-02-28T04:12:52.638Z,9.30
2019-02-28T04:15:21.354Z,9.10
2019-02-28T04:17:49.986Z,9.10
2019-02-28T04:20:18.629Z,9.10
2019-02-28T04:22:47.318Z,9.20
2019-02-28T04:25:22.496Z,9.10
2019-02-28T04:27:46.257Z,9.10
2019-02-28T04:30:15.682Z,9.00
2019-02-28T04:32:44.323Z,9.10
2019-02-28T04:35:12.969Z,9.20
2019-02-28T04:37:46.947Z,9.10
2019-02-28T04:40:13.047Z,9.20
2019-02-28T04:42:41.703Z,9.00
2019-02-28T04:45:12.302Z,9.00
2019-02-28T04:47:41.651Z,8.90
2019-02-28T04:50:12.831Z,8.90
2019-02-28T04:52:46.790Z,8.80
2019-02-28T04:55:11.861Z,8.80
2019-02-28T04:57:40.492Z,8.70
2019-02-28T05:00:12.108Z,8.70
2019-02-28T05:02:40.731Z,8.60
2019-02-28T05:05:12.087Z,8.60
2019-02-28T05:07:39.661Z,8.60
2019-02-28T05:10:09.503Z,8.70
2019-02-28T05:12:40.019Z,8.70
2019-02-28T05:15:11.288Z,8.80
2019-02-28T05:17:39.926Z,8.80
2019-02-28T05:20:10.729Z,8.70
2019-02-28T05:22:40.467Z,8.70
2019-02-28T05:25:17.290Z,8.70
2019-02-28T05:27:42.341Z,8.60
2019-02-28T05:30:19.536Z,8.60
2019-02-28T05:32:47.898Z,8.70
2019-02-28T05:35:16.484Z,8.80
2019-02-28T05:37:48.079Z,8.90
2019-02-28T05:40:15.992Z,8.70
2019-02-28T05:42:44.908Z,8.60
2019-02-28T05:45:14.735Z,8.50
2019-02-28T05:47:46.921Z,8.50
2019-02-28T05:50:16.642Z,8.50
2019-02-28T05:52:44.526Z,8.40
2019-02-28T05:55:13.170Z,8.40
2019-02-28T05:57:43.379Z,8.30
2019-02-28T06:00:15.336Z,8.30
2019-02-28T06:02:43.964Z,8.30
2019-02-28T06:05:12.808Z,8.20
2019-02-28T06:07:41.928Z,8.20
2019-02-28T06:10:12.354Z,8.10
2019-02-28T06:12:43.667Z,8.10
2019-02-28T06:15:13.237Z,8.20
2019-02-28T06:17:41.886Z,8.30
2019-02-28T06:20:12.022Z,8.40
2019-02-28T06:22:40.719Z,8.40
2019-02-28T06:25:10.672Z,8.40
2019-02-28T06:27:41.832Z,8.50
2019-02-28T06:30:17.334Z,8.60
2019-02-28T06:32:45.968Z,8.50
2019-02-28T06:35:18.506Z,8.70
2019-02-28T06:37:44.894Z,8.80
2019-02-28T06:40:17.206Z,9.20
2019-02-28T06:42:46.768Z,10.00
2019-02-28T06:45:17.701Z,11.00
2019-02-28T06:47:49.675Z,11.70
2019-02-28T06:50:16.842Z,12.50
2019-02-28T06:52:45.487Z,13.10
2019-02-28T06:55:24.896Z,13.70
2019-02-28T06:57:53.615Z,14.50
2019-02-28T07:00:22.411Z,15.20
2019-02-28T07:02:50.960Z,16.10
2019-02-28T07:05:24.443Z,15.80
2019-02-28T07:07:50.206Z,16.40
2019-02-28T07:10:19.019Z,17.30
2019-02-28T07:12:47.934Z,17.40
2019-02-28T07:15:16.596Z,17.60
2019-02-28T07:17:46.399Z,18.20
2019-02-28T07:20:18.963Z,18.90
2019-02-28T07:22:47.577Z,19.30
2019-02-28T07:25:16.234Z,18.80
2019-02-28T07:27:46.222Z,19.00
2019-02-28T07:30:18.741Z,19.60
2019-02-28T07:32:47.614Z,19.10
2019-02-28T07:35:16.317Z,19.50
2019-02-28T07:37:44.922Z,20.90
2019-02-28T07:40:16.271Z,20.60
2019-02-28T07:42:45.207Z,21.80
2019-02-28T07:45:14.987Z,21.70
2019-02-28T07:47:43.553Z,21.60
2019-02-28T07:50:14.603Z,22.00
2019-02-28T07:52:44.295Z,21.70
2019-02-28T07:55:22.119Z,22.50
2019-02-28T07:57:53.275Z,22.60
2019-02-28T08:00:25.188Z,22.90
2019-02-28T08:02:53.807Z,23.40
2019-02-28T08:05:22.459Z,23.00
2019-02-28T08:07:52.660Z,23.30
2019-02-28T08:10:29.234Z,23.40
2019-02-28T08:12:57.986Z,23.90
2019-02-28T08:15:28.449Z,24.50
2019-02-28T08:17:57.165Z,24.00
2019-02-28T08:20:25.818Z,24.60
2019-02-28T08:22:56.740Z,24.90
2019-02-28T08:25:24.832Z,25.70
2019-02-28T08:27:56.355Z,27.10
2019-02-28T08:30:31.903Z,26.50
2019-02-28T08:33:00.413Z,27.90
2019-02-28T08:35:34.001Z,27.10
2019-02-28T08:37:59.319Z,27.30
2019-02-28T08:40:28.463Z,26.80
2019-02-28T08:42:57.121Z,27.50
2019-02-28T08:45:25.838Z,26.20
2019-02-28T08:47:56.735Z,25.40
2019-02-28T08:50:26.595Z,26.00
2019-02-28T08:53:05.775Z,26.80
2019-02-28T08:55:34.429Z,27.10
2019-02-28T08:58:06.067Z,26.90
2019-02-28T09:00:33.504Z,27.40
2019-02-28T09:03:02.261Z,27.90
2019-02-28T09:05:30.930Z,27.70
2019-02-28T09:07:59.624Z,26.90
2019-02-28T09:10:28.267Z,26.70
2019-02-28T09:12:56.879Z,27.20
2019-02-28T09:15:30.139Z,27.80
2019-02-28T09:17:59.424Z,28.20
2019-02-28T09:20:27.091Z,28.50
2019-02-28T09:23:01.684Z,28.20
2019-02-28T09:25:27.028Z,29.00
2019-02-28T09:27:55.958Z,28.30
2019-02-28T09:30:29.733Z,29.00
2019-02-28T09:32:58.038Z,28.70
2019-02-28T09:35:26.664Z,29.50
2019-02-28T09:37:55.242Z,29.20
2019-02-28T09:40:25.653Z,30.80
2019-02-28T09:42:54.181Z,29.90
2019-02-28T09:45:31.803Z,29.60
2019-02-28T09:48:02.044Z,29.60
2019-02-28T09:50:32.937Z,28.60
2019-02-28T09:53:01.191Z,29.40
2019-02-28T09:55:34.168Z,28.80
2019-02-28T09:57:59.971Z,28.10
2019-02-28T10:00:29.026Z,28.40
2019-02-28T10:02:57.718Z,29.10
2019-02-28T10:05:26.498Z,29.70
2019-02-28T10:07:55.151Z,29.70
2019-02-28T10:10:28.451Z,30.60
2019-02-28T10:12:57.084Z,30.20
2019-02-28T10:15:25.844Z,29.70
2019-02-28T10:17:54.545Z,28.80
2019-02-28T10:20:31.968Z,29.60
2019-02-28T10:23:00.670Z,29.90
2019-02-28T10:25:29.323Z,29.90
2019-02-28T10:28:01.683Z,30.50
2019-02-28T10:30:32.227Z,30.60
2019-02-28T10:32:58.734Z,30.30
2019-02-28T10:35:27.381Z,29.90
2019-02-28T10:37:58.492Z,28.80
2019-02-28T10:40:27.146Z,29.30
2019-02-28T10:42:55.890Z,28.40
2019-02-28T10:45:25.218Z,29.10
2019-02-28T10:47:53.841Z,29.70
2019-02-28T10:50:33.889Z,28.80
2019-02-28T10:53:05.550Z,28.30
2019-02-28T10:55:33.662Z,28.30
2019-02-28T10:58:02.370Z,28.40
2019-02-28T11:00:41.479Z,28.60
2019-02-28T11:03:10.206Z,28.50
2019-02-28T11:05:40.956Z,28.50
2019-02-28T11:08:12.835Z,28.50
2019-02-28T11:10:44.285Z,28.40
2019-02-28T11:13:20.249Z,28.70
2019-02-28T11:15:49.461Z,28.90
2019-02-28T11:18:18.141Z,28.80
2019-02-28T11:20:46.723Z,28.20
2019-02-28T11:23:15.866Z,28.00
2019-02-28T11:25:45.224Z,28.20
2019-02-28T11:28:14.270Z,27.70
2019-02-28T11:30:45.596Z,27.50
2019-02-28T11:33:14.964Z,27.40
2019-02-28T11:35:43.623Z,27.60
2019-02-28T11:38:12.297Z,27.30
2019-02-28T11:40:43.904Z,27.20
2019-02-28T11:43:11.109Z,27.10
2019-02-28T11:45:44.888Z,27.00
2019-02-28T11:48:20.210Z,27.00
2019-02-28T11:50:46.563Z,27.00
2019-02-28T11:53:15.239Z,26.50
2019-02-28T11:55:43.903Z,26.70
2019-02-28T11:58:16.540Z,26.80
2019-02-28T12:00:42.778Z,27.10
2019-02-28T12:03:11.404Z,27.10
2019-02-28T12:05:40.045Z,27.10
2019-02-28T12:08:10.417Z,27.10
2019-02-28T12:10:39.054Z,26.50
2019-02-28T12:13:07.532Z,26.00
2019-02-28T12:15:39.183Z,26.10
2019-02-28T12:18:08.166Z,25.70
2019-02-28T12:20:36.813Z,25.90
2019-02-28T12:23:05.460Z,25.60
2019-02-28T12:25:34.052Z,25.50
2019-02-28T12:28:06.353Z,25.50
2019-02-28T12:30:34.156Z,24.70
2019-02-28T12:33:02.727Z,24.30
2019-02-28T12:35:37.530Z,23.90
2019-02-28T12:38:01.842Z,23.60
2019-02-28T12:40:34.307Z,23.50
2019-02-28T12:43:08.518Z,23.40
2019-02-28T12:45:41.262Z,23.20
2019-02-28T12:48:09.911Z,22.60
2019-02-28T12:50:38.576Z,22.80
2019-02-28T12:53:07.222Z,22.80
2019-02-28T12:55:38.922Z,22.30
2019-02-28T12:58:06.222Z,22.40
2019-02-28T13:00:47.885Z,22.30
2019-02-28T13:03:20.172Z,22.70
2019-02-28T13:05:48.052Z,22.70
2019-02-28T13:08:17.172Z,22.50
2019-02-28T13:10:45.826Z,22.60
2019-02-28T13:13:14.428Z,22.40
2019-02-28T13:15:45.463Z,22.30
2019-02-28T13:18:13.465Z,22.20
2019-02-28T13:20:42.129Z,22.00
2019-02-28T13:23:10.837Z,22.30
2019-02-28T13:25:39.495Z,22.40
2019-02-28T13:28:08.481Z,22.50
2019-02-28T13:30:39.831Z,22.30
2019-02-28T13:33:10.867Z,22.20
2019-02-28T13:35:45.329Z,22.20
2019-02-28T13:38:10.167Z,22.20
2019-02-28T13:40:40.842Z,22.20
2019-02-28T13:43:09.089Z,22.10
2019-02-28T13:45:37.702Z,22.30
2019-02-28T13:48:06.394Z,22.20
2019-02-28T13:50:36.593Z,21.90
2019-02-28T13:53:17.386Z,21.90
2019-02-28T13:55:36.672Z,21.90
2019-02-28T13:58:05.609Z,21.80
2019-02-28T14:00:35.898Z,22.00
2019-02-28T14:03:16.861Z,22.00
2019-02-28T14:05:44.609Z,22.00
2019-02-28T14:08:13.247Z,22.20
2019-02-28T14:10:41.841Z,22.20
2019-02-28T14:13:10.489Z,22.00
2019-02-28T14:15:51.616Z,21.90
2019-02-28T14:18:18.229Z,21.60
2019-02-28T14:20:49.051Z,21.20
2019-02-28T14:23:20.097Z,21.50
2019-02-28T14:25:47.535Z,21.50
2019-02-28T14:28:16.202Z,21.40
2019-02-28T14:30:44.851Z,21.40
2019-02-28T14:33:16.146Z,21.40
2019-02-28T14:35:43.868Z,21.50
2019-02-28T14:38:12.519Z,21.40
2019-02-28T14:40:41.210Z,21.30
2019-02-28T14:43:09.865Z,21.40
2019-02-28T14:45:42.921Z,21.40
2019-02-28T14:48:11.435Z,21.40
2019-02-28T14:50:40.099Z,21.30
2019-02-28T14:53:13.020Z,21.20
2019-02-28T14:55:39.562Z,21.10
2019-02-28T14:58:08.256Z,20.90
2019-02-28T15:00:38.947Z,20.90
2019-02-28T15:03:07.145Z,21.00
2019-02-28T15:05:38.269Z,20.80
2019-02-28T15:08:06.925Z,20.60
2019-02-28T15:10:35.704Z,20.40
2019-02-28T15:13:05.070Z,20.30
2019-02-28T15:15:35.905Z,20.40
2019-02-28T15:18:04.363Z,20.20
2019-02-28T15:20:33.306Z,19.90
2019-02-28T15:23:02.109Z,20.00
2019-02-28T15:25:31.024Z,19.90
2019-02-28T15:27:59.681Z,19.90
2019-02-28T15:30:39.217Z,19.70
2019-02-28T15:33:07.780Z,19.80
2019-02-28T15:35:36.432Z,19.70
2019-02-28T15:38:05.661Z,19.80
2019-02-28T15:40:40.725Z,19.60
2019-02-28T15:43:09.499Z,19.60
2019-02-28T15:45:38.096Z,19.40
2019-02-28T15:48:06.730Z,19.20
2019-02-28T15:50:35.354Z,19.10
2019-02-28T15:53:04.010Z,19.10
2019-02-28T15:55:35.113Z,19.10
2019-02-28T15:58:05.800Z,19.10
2019-02-28T16:00:36.841Z,19.10
2019-02-28T16:03:04.767Z,19.00
2019-02-28T16:05:32.633Z,19.00
2019-02-28T16:08:00.542Z,19.10
2019-02-28T16:10:31.848Z,19.00
2019-02-28T16:12:58.986Z,18.80
2019-02-28T16:15:26.895Z,18.70
2019-02-28T16:17:54.710Z,18.60
2019-02-28T16:20:22.640Z,18.60
2019-02-28T16:22:53.047Z,18.70
2019-02-28T16:25:21.466Z,18.70
2019-02-28T16:27:49.392Z,18.50
2019-02-28T16:30:17.682Z,18.50
2019-02-28T16:32:48.780Z,18.40
2019-02-28T16:35:15.495Z,18.30
2019-02-28T16:37:43.500Z,18.20
2019-02-28T16:40:12.693Z,18.20
2019-02-28T16:42:43.487Z,18.10
2019-02-28T16:45:16.221Z,17.80
2019-02-28T16:47:44.172Z,17.70
2019-02-28T16:50:12.058Z,17.50
2019-02-28T16:52:40.652Z,17.40
2019-02-28T16:55:10.092Z,17.30
2019-02-28T16:57:37.996Z,17.10
2019-02-28T17:00:16.516Z,17.10
2019-02-28T17:02:44.411Z,17.00
2019-02-28T17:05:12.370Z,16.80
2019-02-28T17:07:40.478Z,16.80
2019-02-28T17:10:15.386Z,16.80
2019-02-28T17:13:02.905Z,16.70
2019-02-28T17:15:35.254Z,16.60
2019-02-28T17:18:04.778Z,16.50
2019-02-28T17:20:32.669Z,16.50
2019-02-28T17:23:01.378Z,16.40
2019-02-28T17:25:30.311Z,16.30
2019-02-28T17:28:08.831Z,16.20
2019-02-28T17:30:41.086Z,16.10
2019-02-28T17:33:09.837Z,16.10
2019-02-28T17:35:37.840Z,16.00
2019-02-28T17:38:05.784Z,15.90
2019-02-28T17:40:33.675Z,16.00
2019-02-28T17:43:01.562Z,16.00
2019-02-28T17:45:29.597Z,15.90
2019-02-28T17:48:17.202Z,16.00
2019-02-28T17:50:46.704Z,16.00
2019-02-28T17:53:31.422Z,15.90
2019-02-28T17:56:22.389Z,15.90
2019-02-28T17:58:47.378Z,15.80
2019-02-28T18:01:29.860Z,15.70
2019-02-28T18:04:11.924Z,15.70
2019-02-28T18:06:43.732Z,15.70
2019-02-28T18:09:15.219Z,15.60
2019-02-28T18:12:01.263Z,15.50
2019-02-28T18:14:39.943Z,15.50
2019-02-28T18:17:24.695Z,15.40
2019-02-28T18:20:10.593Z,15.30
2019-02-28T18:22:56.469Z,15.10
2019-02-28T18:25:25.915Z,15.00
2019-02-28T18:28:13.702Z,14.90
2019-02-28T18:30:46.365Z,14.80
2019-02-28T18:33:15.171Z,14.80
2019-02-28T18:35:43.088Z,14.80
2019-02-28T18:38:10.974Z,14.80
2019-02-28T18:40:38.865Z,14.70
2019-02-28T18:43:06.803Z,14.70
2019-02-28T18:45:34.725Z,14.60
2019-02-28T18:48:02.574Z,14.60
2019-02-28T18:50:30.509Z,14.50
2019-02-28T18:52:58.397Z,14.50
2019-02-28T18:55:34.719Z,14.50
2019-02-28T18:57:56.780Z,14.40
2019-02-28T19:00:24.758Z,14.50
2019-02-28T19:02:52.650Z,14.40
2019-02-28T19:05:20.580Z,14.40
2019-02-28T19:07:48.466Z,14.30
2019-02-28T19:10:16.338Z,14.30
2019-02-28T19:12:44.288Z,14.20
2019-02-28T19:15:13.761Z,14.10
2019-02-28T19:17:41.647Z,14.20
2019-02-28T19:20:10.548Z,14.20
2019-02-28T19:22:38.424Z,14.10
2019-02-28T19:25:08.023Z,14.10
2019-02-28T19:27:35.888Z,14.00
2019-02-28T19:30:05.352Z,14.00
2019-02-28T19:32:33.918Z,13.90
2019-02-28T19:35:02.182Z,13.90
2019-02-28T19:37:30.086Z,13.90
2019-02-28T19:39:57.984Z,13.80
2019-02-28T19:42:25.917Z,13.90
2019-02-28T19:44:53.812Z,13.80
2019-02-28T19:47:21.711Z,13.70
2019-02-28T19:49:49.631Z,13.70
2019-02-28T19:52:17.522Z,13.50
2019-02-28T19:54:45.480Z,13.50
2019-02-28T19:57:13.343Z,13.50
2019-02-28T19:59:42.085Z,13.50
2019-02-28T20:02:10.004Z,13.40
2019-02-28T20:04:37.875Z,13.50
2019-02-28T20:07:05.793Z,13.40
2019-02-28T20:09:33.683Z,13.40
2019-02-28T20:12:01.572Z,13.40
2019-02-28T20:14:29.505Z,13.30
2019-02-28T20:16:57.391Z,13.30
2019-02-28T20:19:25.307Z,13.30
2019-02-28T20:21:53.336Z,13.30
2019-02-28T20:24:21.346Z,13.30
2019-02-28T20:26:49.378Z,13.30
2019-02-28T20:29:19.034Z,13.30
2019-02-28T20:31:47.073Z,13.20
2019-02-28T20:34:14.935Z,13.20
2019-02-28T20:36:43.013Z,13.20
2019-02-28T20:39:12.035Z,13.10
2019-02-28T20:41:40.032Z,13.10
2019-02-28T20:44:08.074Z,13.10
2019-02-28T20:46:36.002Z,13.20
2019-02-28T20:49:03.912Z,13.10
2019-02-28T20:51:31.938Z,13.00
2019-02-28T20:53:59.942Z,12.90
2019-02-28T20:56:27.977Z,12.90
2019-02-28T20:58:55.967Z,12.90
2019-02-28T21:01:24.021Z,12.90
2019-02-28T21:03:51.877Z,12.90
2019-02-28T21:06:19.919Z,12.90
2019-02-28T21:08:47.955Z,12.80
2019-02-28T21:11:15.948Z,12.80
2019-02-28T21:13:43.988Z,12.80
2019-02-28T21:16:11.995Z,12.70
2019-02-28T21:18:40.015Z,12.60
2019-02-28T21:21:08.046Z,12.70
2019-02-28T21:23:36.056Z,12.70
2019-02-28T21:26:03.978Z,12.70
2019-02-28T21:28:32.019Z,12.60
2019-02-28T21:31:00.030Z,12.70
2019-02-28T21:33:28.070Z,12.70
2019-02-28T21:35:55.912Z,12.70
2019-02-28T21:38:24.681Z,12.70
2019-02-28T21:40:52.663Z,12.70
2019-02-28T21:43:20.599Z,12.70
2019-02-28T21:45:48.534Z,12.60
2019-02-28T21:48:17.089Z,12.60
2019-02-28T21:50:45.959Z,12.60
2019-02-28T21:53:14.957Z,12.60
2019-02-28T21:55:43.636Z,12.70
2019-02-28T21:58:11.646Z,12.60
2019-02-28T22:00:40.031Z,12.50
2019-02-28T22:03:08.770Z,12.60
2019-02-28T22:05:37.763Z,12.40
2019-02-28T22:08:06.756Z,12.50
2019-02-28T22:10:35.747Z,12.50
2019-02-28T22:13:03.746Z,12.30
2019-02-28T22:15:32.502Z,12.30
2019-02-28T22:18:01.496Z,12.30
2019-02-28T22:20:29.479Z,12.20
2019-02-28T22:22:58.267Z,12.10
2019-02-28T22:25:26.229Z,12.20
2019-02-28T22:27:55.009Z,12.10
2019-02-28T22:30:43.291Z,12.00
2019-02-28T22:33:18.570Z,12.00
2019-02-28T22:36:00.046Z,12.00
2019-02-28T22:38:28.020Z,12.00
2019-02-28T22:40:55.834Z,11.80
2019-02-28T22:43:23.708Z,11.70
2019-02-28T22:45:51.640Z,11.70
2019-02-28T22:48:19.539Z,11.70
2019-02-28T22:50:47.434Z,11.60
2019-02-28T22:53:15.327Z,11.60
2019-02-28T22:55:43.245Z,11.60
2019-02-28T22:58:11.465Z,11.50
2019-02-28T23:01:00.390Z,11.40
2019-02-28T23:03:31.903Z,11.20
2019-02-28T23:05:59.816Z,11.30
2019-02-28T23:08:27.743Z,11.20
2019-02-28T23:10:55.622Z,11.30
2019-02-28T23:13:23.532Z,11.10
2019-02-28T23:15:51.409Z,11.00
2019-02-28T23:18:19.348Z,10.90
2019-02-28T23:20:47.283Z,10.80
2019-02-28T23:23:15.162Z,10.80
2019-02-28T23:25:43.081Z,10.60
2019-02-28T23:28:12.265Z,10.50
2019-02-28T23:30:47.758Z,10.50
2019-02-28T23:33:15.643Z,10.50
2019-02-28T23:35:43.567Z,10.40
2019-02-28T23:38:11.501Z,10.40
2019-02-28T23:40:39.386Z,10.40
2019-02-28T23:43:07.307Z,10.40
2019-02-28T23:45:35.194Z,10.30
2019-02-28T23:48:03.118Z,10.30
2019-02-28T23:50:31.024Z,10.30
2019-02-28T23:52:58.923Z,10.20
2019-02-28T23:55:26.835Z,10.30
2019-02-28T23:57:54.728Z,10.40
